Observations for Trim Patrick St
| Time | AQI | Temp °C | Hum % | Pres Pa | CO μg/m³ | H₂S μg/m³ | NO μg/m³ | NO₂ μg/m³ | O₃ μg/m³ | SO₂ μg/m³ | PM1 μg/m³ | PM2.5 μg/m³ | PM10 μg/m³ |
|---|---|---|---|---|---|---|---|---|---|---|---|---|---|
| Friday 28 August 2026 | |||||||||||||
| 09:51 | 2 | 20.2 | 82 | 38,460 | 0.21 | 0 | 2.23 | 0 | 36.83 | 3.72 | 22.57 | 30.76 | 32.63 |
| 09:50 | 2 | 20.1 | 82 | 38,460 | 0.22 | 0 | 2.17 | 0 | 39.7 | 3.45 | 20.86 | 29.47 | 32.18 |
| 09:49 | 2 | 20.1 | 82 | 38,460 | 0.22 | 0 | 2.17 | 0 | 31.43 | 3.36 | 22.57 | 30.84 | 33.47 |
| 09:48 | 2 | 20 | 83 | 38,460 | 0.21 | 0 | 2.24 | 0 | 46.66 | 3.34 | 20.86 | 29.29 | 31.09 |
| 09:47 | 2 | 19.9 | 82 | 38,460 | 0.23 | 0 | 2.19 | 0 | 40.93 | 2.91 | 21.72 | 30.76 | 33.84 |
| 09:46 | 2 | 19.9 | 83 | 38,460 | 0.21 | 0 | 2.19 | 0 | 36.96 | 3.43 | 21.72 | 30.74 | 31.89 |
| 09:45 | 2 | 19.8 | 83 | 38,460 | 0.22 | 0 | 2.21 | 0 | 42.27 | 3.31 | 22.57 | 33.45 | 33.77 |
| 09:44 | 2 | 19.7 | 83 | 38,460 | 0.23 | 0 | 2.2 | 0 | 31.74 | 2.85 | 21.72 | 32.07 | 32.43 |
| 09:43 | 2 | 19.6 | 84 | 38,460 | 0.22 | 0 | 2.24 | 0 | 41.07 | 2.89 | 21.72 | 29.87 | 30.17 |
| 09:42 | 2 | 19.6 | 84 | 38,460 | 0.22 | 0 | 2.23 | 1.84 | 36.11 | 2.9 | 22.57 | 30.59 | 30.9 |
| 09:41 | 2 | 19.5 | 84 | 38,460 | 0.23 | 1.39 | 2.26 | 11.57 | 31.42 | 2.95 | 20.86 | 31.18 | 31.33 |
| 09:40 | 2 | 19.4 | 85 | 38,460 | 0.23 | 1.52 | 2.26 | 8.03 | 31.31 | 3.49 | 21.72 | 30.46 | 31.93 |
| 09:39 | 2 | 19.3 | 84 | 38,460 | 0.25 | 1.5 | 2.22 | 1.75 | 38.69 | 3.33 | 22.57 | 31.23 | 32.76 |
| 09:38 | 2 | 19.3 | 84 | 38,460 | 0.2 | 1.08 | 2.26 | 0 | 39.03 | 0.31 | 21.72 | 29.79 | 32.77 |
| 09:30 | 2 | 18.8 | 85 | 38,460 | 0.21 | 2.98 | 2.29 | 5.94 | 34.81 | 1.43 | 23.43 | 32.46 | 33.07 |
| 09:29 | 2 | 18.7 | 85 | 38,460 | 0.23 | 3.24 | 2.3 | 12.39 | 41.1 | 0.85 | 22.57 | 32.44 | 35.69 |
| 09:28 | 2 | 18.6 | 85 | 38,460 | 0.2 | 2.64 | 2.33 | 11.17 | 39.03 | 0.38 | 22.57 | 31.73 | 33.62 |
| 09:27 | 2 | 18.6 | 86 | 38,460 | 0.2 | 2.85 | 2.3 | 11.97 | 37.81 | 1.03 | 21.72 | 31.01 | 34.11 |
| 09:26 | 2 | 18.6 | 86 | 38,460 | 0.2 | 2.07 | 2.29 | 2.38 | 33.76 | 1.74 | 20.86 | 29.63 | 32.6 |
| 09:25 | 2 | 18.5 | 86 | 38,460 | 0.21 | 2.93 | 2.25 | 10.74 | 29.41 | 1.93 | 21.72 | 28.93 | 31.82 |